Makinen, Minnesota
Current Conditions -  °F | °C
As of 1:51 PM on Wednesday 17 Dec 2014 (Local Time) from KEVM Reporting Station
Scattered Clouds Scattered Clouds  
Wind Chill: 13°   Ceiling: Unl
Heat Index: 21°   Visibility: 10mi
Dew Point: 12°   Wind: 7mph
Humidity: 68%   Direction: 360°N
Pressure: 30.25"   Gusts: NA
Location:  47.36°N, 92.37°W
Report Text: KEVM 171951Z AUTO 36006KT 10SM SCT019 M06/M11 A3025 RMK AO2
Loading
Personal Weather Stations






























Interactive Weather Map New forecast layout! Learn more

10-Day Weather Forecast

Advertisements
Track Severe Weather on mobile